sensor_id;sensor_type;location;lat;lon;timestamp;pressure;altitude;pressure_sealevel;temperature;humidity
55263;BME280;41125;48.752;9.168;2022-11-03T00:00:12;97323.38;;;8.01;82.65
55263;BME280;41125;48.752;9.168;2022-11-03T00:00:43;97323.38;;;8.01;82.67
55263;BME280;41125;48.752;9.168;2022-11-03T00:01:17;97318.50;;;7.98;82.72
55263;BME280;41125;48.752;9.168;2022-11-03T00:01:48;97314.16;;;7.97;82.97
55263;BME280;41125;48.752;9.168;2022-11-03T00:02:23;97310.69;;;7.97;83.18
55263;BME280;41125;48.752;9.168;2022-11-03T00:02:53;97314.47;;;7.96;82.88
55263;BME280;41125;48.752;9.168;2022-11-03T00:03:25;97313.09;;;7.98;82.95
55263;BME280;41125;48.752;9.168;2022-11-03T00:03:55;97313.66;;;7.95;82.72
55263;BME280;41125;48.752;9.168;2022-11-03T00:04:27;97309.87;;;7.96;82.98
55263;BME280;41125;48.752;9.168;2022-11-03T00:04:58;97319.06;;;7.95;82.96
55263;BME280;41125;48.752;9.168;2022-11-03T00:05:48;97319.59;;;7.92;82.85
55263;BME280;41125;48.752;9.168;2022-11-03T00:06:34;97317.16;;;7.91;83.04
55263;BME280;41125;48.752;9.168;2022-11-03T00:07:06;97314.72;;;7.89;83.35
55263;BME280;41125;48.752;9.168;2022-11-03T00:07:40;97322.25;;;7.87;83.40
55263;BME280;41125;48.752;9.168;2022-11-03T00:08:11;97313.34;;;7.87;83.25
55263;BME280;41125;48.752;9.168;2022-11-03T00:08:42;97325.50;;;7.84;83.34
55263;BME280;41125;48.752;9.168;2022-11-03T00:09:14;97315.75;;;7.83;83.16
55263;BME280;41125;48.752;9.168;2022-11-03T00:09:45;97315.22;;;7.81;83.35
55263;BME280;41125;48.752;9.168;2022-11-03T00:10:16;97315.47;;;7.80;83.43
55263;BME280;41125;48.752;9.168;2022-11-03T00:10:47;97327.09;;;7.80;83.19
55263;BME280;41125;48.752;9.168;2022-11-03T00:11:18;97313.59;;;7.80;83.67
55263;BME280;41125;48.752;9.168;2022-11-03T00:11:49;97314.69;;;7.84;83.48
55263;BME280;41125;48.752;9.168;2022-11-03T00:12:20;97319.53;;;7.82;83.39
55263;BME280;41125;48.752;9.168;2022-11-03T00:12:52;97312.50;;;7.81;83.56
55263;BME280;41125;48.752;9.168;2022-11-03T00:13:26;97316.56;;;7.79;83.39
55263;BME280;41125;48.752;9.168;2022-11-03T00:13:57;97323.03;;;7.78;83.49
55263;BME280;41125;48.752;9.168;2022-11-03T00:14:29;97315.75;;;7.78;83.46
55263;BME280;41125;48.752;9.168;2022-11-03T00:14:59;97309.78;;;7.76;83.42
55263;BME280;41125;48.752;9.168;2022-11-03T00:15:31;97314.38;;;7.76;83.83
55263;BME280;41125;48.752;9.168;2022-11-03T00:16:03;97312.50;;;7.76;83.73
55263;BME280;41125;48.752;9.168;2022-11-03T00:16:34;97306.00;;;7.77;83.56
55263;BME280;41125;48.752;9.168;2022-11-03T00:17:05;97310.59;;;7.77;83.54
55263;BME280;41125;48.752;9.168;2022-11-03T00:17:36;97303.31;;;7.77;83.52
55263;BME280;41125;48.752;9.168;2022-11-03T00:18:08;97300.09;;;7.80;83.21
55263;BME280;41125;48.752;9.168;2022-11-03T00:18:41;97304.41;;;7.81;83.51
55263;BME280;41125;48.752;9.168;2022-11-03T00:19:15;97302.53;;;7.82;83.14
55263;BME280;41125;48.752;9.168;2022-11-03T00:19:46;97300.63;;;7.82;83.34
55263;BME280;41125;48.752;9.168;2022-11-03T00:20:20;97306.03;;;7.82;82.93
55263;BME280;41125;48.752;9.168;2022-11-03T00:20:58;97303.34;;;7.82;83.23
55263;BME280;41125;48.752;9.168;2022-11-03T00:21:29;97305.47;;;7.80;82.67
55263;BME280;41125;48.752;9.168;2022-11-03T00:22:00;97298.47;;;7.79;83.01
55263;BME280;41125;48.752;9.168;2022-11-03T00:22:31;97296.84;;;7.78;83.03
55263;BME280;41125;48.752;9.168;2022-11-03T00:23:04;97303.87;;;7.79;83.26
55263;BME280;41125;48.752;9.168;2022-11-03T00:23:35;97296.84;;;7.78;83.11
55263;BME280;41125;48.752;9.168;2022-11-03T00:24:07;97305.47;;;7.80;83.04
55263;BME280;41125;48.752;9.168;2022-11-03T00:24:38;97297.38;;;7.80;83.12
55263;BME280;41125;48.752;9.168;2022-11-03T00:25:09;97300.59;;;7.77;82.96
55263;BME280;41125;48.752;9.168;2022-11-03T00:25:40;97304.38;;;7.76;83.17
55263;BME280;41125;48.752;9.168;2022-11-03T00:26:21;97295.72;;;7.74;83.19
55263;BME280;41125;48.752;9.168;2022-11-03T00:26:52;97301.13;;;7.74;83.32
55263;BME280;41125;48.752;9.168;2022-11-03T00:27:23;97297.88;;;7.72;83.45
55263;BME280;41125;48.752;9.168;2022-11-03T00:27:54;97302.47;;;7.71;83.61
55263;BME280;41125;48.752;9.168;2022-11-03T00:28:29;97296.25;;;7.71;83.69
55263;BME280;41125;48.752;9.168;2022-11-03T00:29:01;97296.25;;;7.71;83.48
55263;BME280;41125;48.752;9.168;2022-11-03T00:29:35;97304.38;;;7.71;83.76
55263;BME280;41125;48.752;9.168;2022-11-03T00:30:06;97299.75;;;7.66;83.71
55263;BME280;41125;48.752;9.168;2022-11-03T00:30:38;97301.63;;;7.66;83.66
55263;BME280;41125;48.752;9.168;2022-11-03T00:31:11;97302.19;;;7.68;83.87
55263;BME280;41125;48.752;9.168;2022-11-03T00:31:45;97295.16;;;7.67;83.70
55263;BME280;41125;48.752;9.168;2022-11-03T00:32:16;97300.56;;;7.67;83.78
55263;BME280;41125;48.752;9.168;2022-11-03T00:32:51;97298.41;;;7.69;83.85
55263;BME280;41125;48.752;9.168;2022-11-03T00:33:22;97298.41;;;7.69;83.72
55263;BME280;41125;48.752;9.168;2022-11-03T00:33:56;97296.78;;;7.68;84.04
55263;BME280;41125;48.752;9.168;2022-11-03T00:34:27;97307.03;;;7.66;83.91
55263;BME280;41125;48.752;9.168;2022-11-03T00:34:59;97301.91;;;7.64;83.97
55263;BME280;41125;48.752;9.168;2022-11-03T00:35:30;97296.75;;;7.63;84.04
55263;BME280;41125;48.752;9.168;2022-11-03T00:36:01;97290.03;;;7.60;84.24
55263;BME280;41125;48.752;9.168;2022-11-03T00:36:36;97297.88;;;7.62;84.36
55263;BME280;41125;48.752;9.168;2022-11-03T00:37:08;97291.38;;;7.68;84.33
55263;BME280;41125;48.752;9.168;2022-11-03T00:37:38;97280.06;;;7.71;83.84
55263;BME280;41125;48.752;9.168;2022-11-03T00:38:09;97285.72;;;7.69;84.23
55263;BME280;41125;48.752;9.168;2022-11-03T00:38:41;97282.19;;;7.69;83.86
55263;BME280;41125;48.752;9.168;2022-11-03T00:39:12;97284.34;;;7.67;84.09
55263;BME280;41125;48.752;9.168;2022-11-03T00:39:43;97289.22;;;7.70;84.16
55263;BME280;41125;48.752;9.168;2022-11-03T00:40:14;97284.09;;;7.68;84.12
55263;BME280;41125;48.752;9.168;2022-11-03T00:40:51;97282.72;;;7.66;83.97
55263;BME280;41125;48.752;9.168;2022-11-03T00:41:23;97278.66;;;7.63;84.20
55263;BME280;41125;48.752;9.168;2022-11-03T00:41:54;97283.81;;;7.60;84.22
55263;BME280;41125;48.752;9.168;2022-11-03T00:42:25;97282.19;;;7.59;84.72
55263;BME280;41125;48.752;9.168;2022-11-03T00:42:58;97275.16;;;7.58;84.52
55263;BME280;41125;48.752;9.168;2022-11-03T00:43:29;97283.81;;;7.60;84.75
55263;BME280;41125;48.752;9.168;2022-11-03T00:45:09;97278.66;;;7.63;84.58
55263;BME280;41125;48.752;9.168;2022-11-03T00:45:40;97273.00;;;7.65;84.55
55263;BME280;41125;48.752;9.168;2022-11-03T00:46:11;97277.03;;;7.62;84.03
55263;BME280;41125;48.752;9.168;2022-11-03T00:46:42;97277.03;;;7.62;84.87
55263;BME280;41125;48.752;9.168;2022-11-03T00:47:13;97270.03;;;7.61;84.70
55263;BME280;41125;48.752;9.168;2022-11-03T00:47:44;97269.22;;;7.61;84.90
55263;BME280;41125;48.752;9.168;2022-11-03T00:48:34;97268.12;;;7.57;84.87
55263;BME280;41125;48.752;9.168;2022-11-03T00:49:05;97271.09;;;7.55;84.95
55263;BME280;41125;48.752;9.168;2022-11-03T00:49:36;97268.66;;;7.54;85.10
55263;BME280;41125;48.752;9.168;2022-11-03T00:50:07;97266.50;;;7.56;85.37
55263;BME280;41125;48.752;9.168;2022-11-03T00:50:38;97267.06;;;7.58;85.19
55263;BME280;41125;48.752;9.168;2022-11-03T00:51:19;97262.72;;;7.57;85.45
55263;BME280;41125;48.752;9.168;2022-11-03T00:51:51;97264.91;;;7.60;85.23
55263;BME280;41125;48.752;9.168;2022-11-03T00:52:23;97268.69;;;7.59;84.89
55263;BME280;41125;48.752;9.168;2022-11-03T00:52:53;97263.84;;;7.61;85.21
55263;BME280;41125;48.752;9.168;2022-11-03T00:53:24;97267.06;;;7.63;85.35
55263;BME280;41125;48.752;9.168;2022-11-03T00:53:56;97266.53;;;7.61;85.03
55263;BME280;41125;48.752;9.168;2022-11-03T00:54:28;97263.84;;;7.61;85.11
55263;BME280;41125;48.752;9.168;2022-11-03T00:55:00;97271.94;;;7.61;85.15
55263;BME280;41125;48.752;9.168;2022-11-03T00:55:31;97267.59;;;7.60;85.13
55263;BME280;41125;48.752;9.168;2022-11-03T00:56:04;97264.34;;;7.58;85.02
55263;BME280;41125;48.752;9.168;2022-11-03T00:56:36;97262.72;;;7.57;85.39
55263;BME280;41125;48.752;9.168;2022-11-03T00:57:07;97255.72;;;7.56;84.93
55263;BME280;41125;48.752;9.168;2022-11-03T00:57:38;97258.16;;;7.57;85.15
55263;BME280;41125;48.752;9.168;2022-11-03T00:58:09;97249.78;;;7.59;84.75
55263;BME280;41125;48.752;9.168;2022-11-03T00:58:40;97249.22;;;7.57;85.12
55263;BME280;41125;48.752;9.168;2022-11-03T00:59:12;97250.31;;;7.56;85.13
55263;BME280;41125;48.752;9.168;2022-11-03T00:59:42;97254.09;;;7.55;85.11
55263;BME280;41125;48.752;9.168;2022-11-03T01:00:15;97253.00;;;7.56;85.09
55263;BME280;41125;48.752;9.168;2022-11-03T01:00:46;97255.16;;;7.54;85.21
55263;BME280;41125;48.752;9.168;2022-11-03T01:01:19;97252.47;;;7.54;85.40
55263;BME280;41125;48.752;9.168;2022-11-03T01:01:49;97256.22;;;7.53;85.24
55263;BME280;41125;48.752;9.168;2022-11-03T01:02:20;97252.97;;;7.51;85.26
55263;BME280;41125;48.752;9.168;2022-11-03T01:02:51;97253.78;;;7.51;85.18
55263;BME280;41125;48.752;9.168;2022-11-03T01:03:22;97252.97;;;7.51;85.37
55263;BME280;41125;48.752;9.168;2022-11-03T01:03:54;97259.72;;;7.48;85.71
55263;BME280;41125;48.752;9.168;2022-11-03T01:04:43;97251.88;;;7.47;85.62
55263;BME280;41125;48.752;9.168;2022-11-03T01:05:32;97256.19;;;7.43;86.03
55263;BME280;41125;48.752;9.168;2022-11-03T01:06:21;97255.38;;;7.42;85.92
55263;BME280;41125;48.752;9.168;2022-11-03T01:07:10;97259.41;;;7.39;86.18
55263;BME280;41125;48.752;9.168;2022-11-03T01:07:41;97261.84;;;7.41;86.26
55263;BME280;41125;48.752;9.168;2022-11-03T01:08:12;97251.31;;;7.39;86.39
55263;BME280;41125;48.752;9.168;2022-11-03T01:08:43;97251.31;;;7.39;85.78
55263;BME280;41125;48.752;9.168;2022-11-03T01:09:14;97249.69;;;7.38;86.38
55263;BME280;41125;48.752;9.168;2022-11-03T01:09:45;97252.66;;;7.37;85.92
55263;BME280;41125;48.752;9.168;2022-11-03T01:10:16;97252.38;;;7.38;86.10
55263;BME280;41125;48.752;9.168;2022-11-03T01:10:47;97255.63;;;7.40;86.05
55263;BME280;41125;48.752;9.168;2022-11-03T01:11:36;97241.63;;;7.44;86.24
55263;BME280;41125;48.752;9.168;2022-11-03T01:12:14;97247.00;;;7.44;86.40
55263;BME280;41125;48.752;9.168;2022-11-03T01:12:45;97243.75;;;7.42;86.15
55263;BME280;41125;48.752;9.168;2022-11-03T01:13:17;97244.31;;;7.44;86.14
55263;BME280;41125;48.752;9.168;2022-11-03T01:13:47;97242.94;;;7.41;86.20
55263;BME280;41125;48.752;9.168;2022-11-03T01:14:19;97242.69;;;7.43;86.29
55263;BME280;41125;48.752;9.168;2022-11-03T01:14:51;97249.16;;;7.42;86.20
55263;BME280;41125;48.752;9.168;2022-11-03T01:15:22;97236.19;;;7.38;86.49
55263;BME280;41125;48.752;9.168;2022-11-03T01:15:57;97240.50;;;7.39;86.49
55263;BME280;41125;48.752;9.168;2022-11-03T01:16:28;97240.25;;;7.41;86.41
55263;BME280;41125;48.752;9.168;2022-11-03T01:17:03;97241.06;;;7.42;86.65
55263;BME280;41125;48.752;9.168;2022-11-03T01:17:34;97242.69;;;7.43;86.44
55263;BME280;41125;48.752;9.168;2022-11-03T01:18:05;97238.91;;;7.44;86.49
55263;BME280;41125;48.752;9.168;2022-11-03T01:18:36;97237.28;;;7.43;86.22
55263;BME280;41125;48.752;9.168;2022-11-03T01:19:07;97241.87;;;7.42;86.57
55263;BME280;41125;48.752;9.168;2022-11-03T01:19:38;97241.06;;;7.42;86.89
55263;BME280;41125;48.752;9.168;2022-11-03T01:20:09;97233.78;;;7.42;86.86
55263;BME280;41125;48.752;9.168;2022-11-03T01:20:40;97237.03;;;7.44;86.20
55263;BME280;41125;48.752;9.168;2022-11-03T01:21:11;97233.53;;;7.49;86.41
55263;BME280;41125;48.752;9.168;2022-11-03T01:21:42;97231.91;;;7.48;86.04
55263;BME280;41125;48.752;9.168;2022-11-03T01:22:13;97233.25;;;7.45;86.50
55263;BME280;41125;48.752;9.168;2022-11-03T01:22:45;97226.22;;;7.44;86.36
55263;BME280;41125;48.752;9.168;2022-11-03T01:23:17;97231.06;;;7.42;86.18
55263;BME280;41125;48.752;9.168;2022-11-03T01:23:47;97230.81;;;7.44;86.20
55263;BME280;41125;48.752;9.168;2022-11-03T01:24:18;97236.22;;;7.44;86.55
55263;BME280;41125;48.752;9.168;2022-11-03T01:24:49;97233.50;;;7.44;86.30
55263;BME280;41125;48.752;9.168;2022-11-03T01:25:23;97232.97;;;7.42;86.70
55263;BME280;41125;48.752;9.168;2022-11-03T01:25:55;97228.38;;;7.42;86.40
55263;BME280;41125;48.752;9.168;2022-11-03T01:26:26;97232.97;;;7.42;86.66
55263;BME280;41125;48.752;9.168;2022-11-03T01:26:57;97235.94;;;7.40;86.23
55263;BME280;41125;48.752;9.168;2022-11-03T01:27:32;97231.59;;;7.39;86.44
55263;BME280;41125;48.752;9.168;2022-11-03T01:28:04;97233.22;;;7.40;86.49
55263;BME280;41125;48.752;9.168;2022-11-03T01:28:39;97232.69;;;7.38;86.74
55263;BME280;41125;48.752;9.168;2022-11-03T01:29:10;97228.09;;;7.38;86.65
55263;BME280;41125;48.752;9.168;2022-11-03T01:29:41;97231.88;;;7.37;86.96
55263;BME280;41125;48.752;9.168;2022-11-03T01:30:16;97235.63;;;7.36;86.55
55263;BME280;41125;48.752;9.168;2022-11-03T01:30:48;97227.81;;;7.35;86.97
55263;BME280;41125;48.752;9.168;2022-11-03T01:31:20;97226.19;;;7.34;86.38
55263;BME280;41125;48.752;9.168;2022-11-03T01:31:51;97229.13;;;7.32;86.92
55263;BME280;41125;48.752;9.168;2022-11-03T01:32:22;97223.19;;;7.30;86.67
55263;BME280;41125;48.752;9.168;2022-11-03T01:32:53;97229.66;;;7.29;86.86
55263;BME280;41125;48.752;9.168;2022-11-03T01:33:25;97230.22;;;7.31;86.79
55263;BME280;41125;48.752;9.168;2022-11-03T01:33:56;97226.69;;;7.31;86.66
55263;BME280;41125;48.752;9.168;2022-11-03T01:34:30;97231.28;;;7.30;86.76
55263;BME280;41125;48.752;9.168;2022-11-03T01:35:02;97223.44;;;7.29;86.84
55263;BME280;41125;48.752;9.168;2022-11-03T01:35:36;97226.44;;;7.27;86.84
55263;BME280;41125;48.752;9.168;2022-11-03T01:36:10;97219.94;;;7.28;87.22
55263;BME280;41125;48.752;9.168;2022-11-03T01:36:42;97229.13;;;7.32;86.84
55263;BME280;41125;48.752;9.168;2022-11-03T01:37:13;97227.50;;;7.31;87.12
55263;BME280;41125;48.752;9.168;2022-11-03T01:37:44;97221.56;;;7.29;86.72
55263;BME280;41125;48.752;9.168;2022-11-03T01:38:15;97221.03;;;7.27;87.24
55263;BME280;41125;48.752;9.168;2022-11-03T01:38:46;97219.13;;;7.23;87.03
55263;BME280;41125;48.752;9.168;2022-11-03T01:39:18;97220.75;;;7.24;87.26
55263;BME280;41125;48.752;9.168;2022-11-03T01:39:49;97218.87;;;7.24;87.27
55263;BME280;41125;48.752;9.168;2022-11-03T01:40:23;97218.59;;;7.26;87.62
55263;BME280;41125;48.752;9.168;2022-11-03T01:40:54;97210.50;;;7.26;87.25
55263;BME280;41125;48.752;9.168;2022-11-03T01:41:26;97212.41;;;7.25;87.66
55263;BME280;41125;48.752;9.168;2022-11-03T01:41:57;97205.13;;;7.26;87.16
55263;BME280;41125;48.752;9.168;2022-11-03T01:42:28;97211.31;;;7.26;87.37
55263;BME280;41125;48.752;9.168;2022-11-03T01:43:15;97211.84;;;7.28;87.33
55263;BME280;41125;48.752;9.168;2022-11-03T01:43:48;97210.25;;;7.27;87.35
55263;BME280;41125;48.752;9.168;2022-11-03T01:44:30;97201.59;;;7.25;87.49
55263;BME280;41125;48.752;9.168;2022-11-03T01:45:01;97204.84;;;7.27;87.31
55263;BME280;41125;48.752;9.168;2022-11-03T01:45:32;97208.06;;;7.29;86.97
55263;BME280;41125;48.752;9.168;2022-11-03T01:46:05;97205.09;;;7.31;87.04
55263;BME280;41125;48.752;9.168;2022-11-03T01:46:50;97207.00;;;7.30;87.11
55263;BME280;41125;48.752;9.168;2022-11-03T01:47:28;97210.25;;;7.27;nan
55263;BME280;41125;48.752;9.168;2022-11-03T01:48:04;97204.56;;;7.24;87.30
55263;BME280;41125;48.752;9.168;2022-11-03T01:48:36;97200.50;;;7.21;87.00
55263;BME280;41125;48.752;9.168;2022-11-03T01:49:12;97200.22;;;7.18;87.36
55263;BME280;41125;48.752;9.168;2022-11-03T01:50:44;97204.81;;;7.17;87.60
55263;BME280;41125;48.752;9.168;2022-11-03T01:51:18;97202.63;;;7.14;87.44
55263;BME280;41125;48.752;9.168;2022-11-03T01:51:52;97208.56;;;7.16;87.51
55263;BME280;41125;48.752;9.168;2022-11-03T01:52:26;97204.53;;;7.19;87.44
55263;BME280;41125;48.752;9.168;2022-11-03T01:52:57;97209.94;;;7.19;87.44
55263;BME280;41125;48.752;9.168;2022-11-03T01:53:29;97198.88;;;7.20;87.14
55263;BME280;41125;48.752;9.168;2022-11-03T01:54:00;97203.97;;;7.17;87.00
55263;BME280;41125;48.752;9.168;2022-11-03T01:54:34;97199.94;;;7.14;87.37
55263;BME280;41125;48.752;9.168;2022-11-03T01:55:07;97199.62;;;7.11;86.96
55263;BME280;41125;48.752;9.168;2022-11-03T01:55:39;97197.19;;;7.09;87.41
55263;BME280;41125;48.752;9.168;2022-11-03T01:56:10;97199.91;;;7.09;87.76
55263;BME280;41125;48.752;9.168;2022-11-03T01:56:42;97201.53;;;7.10;87.62
55263;BME280;41125;48.752;9.168;2022-11-03T01:57:19;97200.44;;;7.11;87.69
55263;BME280;41125;48.752;9.168;2022-11-03T01:58:01;97194.50;;;7.09;87.62
55263;BME280;41125;48.752;9.168;2022-11-03T01:58:33;97192.31;;;7.06;87.80
55263;BME280;41125;48.752;9.168;2022-11-03T01:59:07;97197.72;;;7.06;87.90
55263;BME280;41125;48.752;9.168;2022-11-03T01:59:41;97192.59;;;7.04;88.30
55263;BME280;41125;48.752;9.168;2022-11-03T02:00:13;97189.06;;;7.04;88.26
55263;BME280;41125;48.752;9.168;2022-11-03T02:00:44;97191.25;;;7.07;88.48
55263;BME280;41125;48.752;9.168;2022-11-03T02:01:17;97195.06;;;7.11;88.33
55263;BME280;41125;48.752;9.168;2022-11-03T02:01:48;97186.97;;;7.16;87.87
55263;BME280;41125;48.752;9.168;2022-11-03T02:02:21;97188.59;;;7.17;88.11
55263;BME280;41125;48.752;9.168;2022-11-03T02:02:52;97188.59;;;7.17;88.22
55263;BME280;41125;48.752;9.168;2022-11-03T02:03:24;97188.09;;;7.20;87.99
55263;BME280;41125;48.752;9.168;2022-11-03T02:04:02;97188.09;;;7.20;88.10
55263;BME280;41125;48.752;9.168;2022-11-03T02:04:37;97186.47;;;7.19;87.88
55263;BME280;41125;48.752;9.168;2022-11-03T02:05:08;97191.84;;;7.19;88.38
55263;BME280;41125;48.752;9.168;2022-11-03T02:05:40;97183.47;;;7.16;87.58
55263;BME280;41125;48.752;9.168;2022-11-03T02:06:13;97177.81;;;7.17;88.36
55263;BME280;41125;48.752;9.168;2022-11-03T02:06:44;97183.22;;;7.17;87.88
55263;BME280;41125;48.752;9.168;2022-11-03T02:08:13;97187.78;;;7.17;87.91
55263;BME280;41125;48.752;9.168;2022-11-03T02:08:48;97186.97;;;7.16;88.08
55263;BME280;41125;48.752;9.168;2022-11-03T02:09:20;97185.91;;;7.17;87.59
55263;BME280;41125;48.752;9.168;2022-11-03T02:09:54;97184.84;;;7.18;87.98
55263;BME280;41125;48.752;9.168;2022-11-03T02:10:25;97184.28;;;7.16;87.99
55263;BME280;41125;48.752;9.168;2022-11-03T02:10:56;97183.72;;;7.14;88.03
55263;BME280;41125;48.752;9.168;2022-11-03T02:11:28;97184.81;;;7.13;88.14
55263;BME280;41125;48.752;9.168;2022-11-03T02:12:18;97182.09;;;7.13;88.32
55263;BME280;41125;48.752;9.168;2022-11-03T02:12:50;97184.28;;;7.16;88.14
55263;BME280;41125;48.752;9.168;2022-11-03T02:13:22;97179.44;;;7.18;88.12
55263;BME280;41125;48.752;9.168;2022-11-03T02:13:53;97182.69;;;7.20;87.65
55263;BME280;41125;48.752;9.168;2022-11-03T02:14:24;97181.06;;;7.19;87.63
55263;BME280;41125;48.752;9.168;2022-11-03T02:14:57;97174.84;;;7.19;87.61
55263;BME280;41125;48.752;9.168;2022-11-03T02:15:30;97173.50;;;7.16;87.79
55263;BME280;41125;48.752;9.168;2022-11-03T02:16:02;97173.75;;;7.15;87.73
55263;BME280;41125;48.752;9.168;2022-11-03T02:16:33;97173.19;;;7.13;87.92
55263;BME280;41125;48.752;9.168;2022-11-03T02:17:08;97176.72;;;7.13;88.37
55263;BME280;41125;48.752;9.168;2022-11-03T02:17:41;97171.56;;;7.12;88.39
55263;BME280;41125;48.752;9.168;2022-11-03T02:18:15;97179.41;;;7.13;88.09
55263;BME280;41125;48.752;9.168;2022-11-03T02:18:48;97176.72;;;7.13;88.34
55263;BME280;41125;48.752;9.168;2022-11-03T02:20:17;97176.72;;;7.13;88.63
55263;BME280;41125;48.752;9.168;2022-11-03T02:20:52;97178.34;;;7.14;88.15
55263;BME280;41125;48.752;9.168;2022-11-03T02:21:34;97176.19;;;7.16;88.27
55263;BME280;41125;48.752;9.168;2022-11-03T02:22:25;97177.00;;;7.17;87.95
55263;BME280;41125;48.752;9.168;2022-11-03T02:25:01;97171.59;;;7.17;88.37
55263;BME280;41125;48.752;9.168;2022-11-03T02:25:44;97170.78;;;7.16;88.18
55263;BME280;41125;48.752;9.168;2022-11-03T02:26:15;97179.97;;;7.15;88.34
55263;BME280;41125;48.752;9.168;2022-11-03T02:26:48;97172.41;;;7.17;88.07
55263;BME280;41125;48.752;9.168;2022-11-03T02:27:22;97166.22;;;7.17;88.15
55263;BME280;41125;48.752;9.168;2022-11-03T02:27:53;97173.50;;;7.16;88.25
55263;BME280;41125;48.752;9.168;2022-11-03T02:28:25;97168.09;;;7.16;88.48
55263;BME280;41125;48.752;9.168;2022-11-03T02:28:57;97169.97;;;7.16;88.29
55263;BME280;41125;48.752;9.168;2022-11-03T02:29:28;97166.22;;;7.17;88.47
55263;BME280;41125;48.752;9.168;2022-11-03T02:29:59;97162.16;;;7.14;88.09
55263;BME280;41125;48.752;9.168;2022-11-03T02:30:33;97162.16;;;7.14;88.59
55263;BME280;41125;48.752;9.168;2022-11-03T02:31:09;97167.81;;;7.13;88.41
55263;BME280;41125;48.752;9.168;2022-11-03T02:31:41;97165.09;;;7.13;88.71
55263;BME280;41125;48.752;9.168;2022-11-03T02:32:23;97165.37;;;7.11;88.28
55263;BME280;41125;48.752;9.168;2022-11-03T02:32:57;97161.84;;;7.11;88.84
55263;BME280;41125;48.752;9.168;2022-11-03T02:33:36;97164.56;;;7.11;88.98
55263;BME280;41125;48.752;9.168;2022-11-03T02:34:13;97167.25;;;7.11;89.29
55263;BME280;41125;48.752;9.168;2022-11-03T02:34:55;97161.84;;;7.11;89.12
55263;BME280;41125;48.752;9.168;2022-11-03T02:35:35;97166.72;;;7.14;89.48
55263;BME280;41125;48.752;9.168;2022-11-03T02:36:12;97162.97;;;7.15;89.18
55263;BME280;41125;48.752;9.168;2022-11-03T02:36:46;97160.00;;;7.16;89.08
55263;BME280;41125;48.752;9.168;2022-11-03T02:37:21;97160.28;;;7.20;88.94
55263;BME280;41125;48.752;9.168;2022-11-03T02:37:54;97157.59;;;7.20;89.04
55263;BME280;41125;48.752;9.168;2022-11-03T02:38:26;97156.50;;;7.21;88.76
55263;BME280;41125;48.752;9.168;2022-11-03T02:39:04;97150.84;;;7.22;88.98
55263;BME280;41125;48.752;9.168;2022-11-03T02:39:45;97150.03;;;7.22;88.92
55263;BME280;41125;48.752;9.168;2022-11-03T02:40:19;97157.31;;;7.21;88.93
55263;BME280;41125;48.752;9.168;2022-11-03T02:40:56;97153.00;;;7.20;89.09
55263;BME280;41125;48.752;9.168;2022-11-03T02:41:31;97150.03;;;7.22;88.68
55263;BME280;41125;48.752;9.168;2022-11-03T02:42:03;97151.41;;;7.24;88.82
55263;BME280;41125;48.752;9.168;2022-11-03T02:42:35;97147.62;;;7.25;88.49
55263;BME280;41125;48.752;9.168;2022-11-03T02:43:07;97145.47;;;7.27;88.48
55263;BME280;41125;48.752;9.168;2022-11-03T02:43:39;97150.56;;;7.29;87.88
55263;BME280;41125;48.752;9.168;2022-11-03T02:44:13;97146.00;;;7.34;88.12
55263;BME280;41125;48.752;9.168;2022-11-03T02:44:46;97150.87;;;7.37;87.42
55263;BME280;41125;48.752;9.168;2022-11-03T02:45:18;97146.56;;;7.36;87.58
55263;BME280;41125;48.752;9.168;2022-11-03T02:45:50;97145.47;;;7.37;87.20
55263;BME280;41125;48.752;9.168;2022-11-03T02:46:22;97143.31;;;7.39;87.54
55263;BME280;41125;48.752;9.168;2022-11-03T02:46:56;97143.06;;;7.41;87.34
55263;BME280;41125;48.752;9.168;2022-11-03T02:47:28;97143.31;;;7.39;87.00
55263;BME280;41125;48.752;9.168;2022-11-03T02:48:00;97140.88;;;7.38;87.07
55263;BME280;41125;48.752;9.168;2022-11-03T02:48:33;97149.25;;;7.36;86.94
55263;BME280;41125;48.752;9.168;2022-11-03T02:49:04;97144.38;;;7.33;87.05
55263;BME280;41125;48.752;9.168;2022-11-03T02:49:38;97139.25;;;7.32;87.29
55263;BME280;41125;48.752;9.168;2022-11-03T02:50:10;97145.72;;;7.31;87.66
55263;BME280;41125;48.752;9.168;2022-11-03T02:50:41;97141.41;;;7.30;87.57
55263;BME280;41125;48.752;9.168;2022-11-03T02:51:12;97146.00;;;7.29;87.99
55263;BME280;41125;48.752;9.168;2022-11-03T02:51:47;97132.50;;;7.29;87.79
55263;BME280;41125;48.752;9.168;2022-11-03T02:53:26;97140.06;;;7.27;87.52
55263;BME280;41125;48.752;9.168;2022-11-03T02:54:55;97129.53;;;7.36;87.26
55263;BME280;41125;48.752;9.168;2022-11-03T02:56:20;97125.50;;;7.38;87.21
55263;BME280;41125;48.752;9.168;2022-11-03T02:58:40;97128.19;;;7.33;87.34
55263;BME280;41125;48.752;9.168;2022-11-03T02:59:15;97124.41;;;7.34;87.55
55263;BME280;41125;48.752;9.168;2022-11-03T02:59:59;97121.97;;;7.33;87.32
55263;BME280;41125;48.752;9.168;2022-11-03T03:00:32;97126.56;;;7.32;87.57
55263;BME280;41125;48.752;9.168;2022-11-03T03:01:11;97112.53;;;7.30;87.29
55263;BME280;41125;48.752;9.168;2022-11-03T03:01:48;97121.19;;;7.27;87.45
55263;BME280;41125;48.752;9.168;2022-11-03T03:02:23;97114.69;;;7.23;87.87
55263;BME280;41125;48.752;9.168;2022-11-03T03:03:01;97121.44;;;7.21;87.91
55263;BME280;41125;48.752;9.168;2022-11-03T03:03:36;97114.66;;;7.18;87.69
55263;BME280;41125;48.752;9.168;2022-11-03T03:04:08;97108.19;;;7.19;87.84
55263;BME280;41125;48.752;9.168;2022-11-03T03:04:42;97113.59;;;7.19;88.23
55263;BME280;41125;48.752;9.168;2022-11-03T03:05:15;97111.72;;;7.20;88.14
55263;BME280;41125;48.752;9.168;2022-11-03T03:05:50;97113.34;;;7.21;88.12
55263;BME280;41125;48.752;9.168;2022-11-03T03:06:25;97109.56;;;7.22;87.97
55263;BME280;41125;48.752;9.168;2022-11-03T03:06:59;97099.03;;;7.20;87.90
55263;BME280;41125;48.752;9.168;2022-11-03T03:07:33;97103.34;;;7.21;88.19
55263;BME280;41125;48.752;9.168;2022-11-03T03:08:06;97094.16;;;7.22;88.06
55263;BME280;41125;48.752;9.168;2022-11-03T03:08:42;97101.19;;;7.23;87.98
55263;BME280;41125;48.752;9.168;2022-11-03T03:09:20;97098.50;;;7.23;87.93